This is the latest recevied weather packets stored in our database for station/object VE7OTD. If no packets are shown the sender has not sent any weather packets the latest 10 day(s).
| Time | Temp. | Humidity | Pressure | Rain* | Wind** | Luminosity | Snow |
|---|---|---|---|---|---|---|---|
| 1778189850 | 20° C | 47% | 1017.4 hPa | 0 mm | - | - | - |
| 1778188035 | 20° C | 50% | 1017.9 hPa | 0 mm | - | - | - |
| 1778186201 | 18.89° C | 53% | 1018.2 hPa | 0 mm | - | - | - |
| 1778184392 | 18.33° C | 55% | 1018.7 hPa | 0 mm | - | - | - |
| 1778182589 | 18.33° C | 54% | 1019 hPa | 0 mm | - | - | - |
| 1778180775 | 17.78° C | 54% | 1019.2 hPa | 0 mm | - | - | - |
| 1778178960 | 16.67° C | 57% | 1019.5 hPa | 0 mm | - | - | - |
| 1778177144 | 16.11° C | 57% | 1019.8 hPa | 0 mm | - | - | - |
| 1778175316 | 15.56° C | 59% | 1019.9 hPa | 0 mm | - | - | - |
| 1778173514 | 14.44° C | 60% | 1020.1 hPa | 0 mm | - | - | - |
| 1778171700 | 13.89° C | 62% | 1020.3 hPa | 0 mm | - | - | - |
| 1778169871 | 13.33° C | 62% | 1020.4 hPa | 0 mm | - | - | - |
| 1778168051 | 14.44° C | 60% | 1020.6 hPa | 0 mm | - | - | - |
| 1778166241 | 12.22° C | 66% | 1020.5 hPa | 0 mm | - | - | - |
| 1778164439 | 10.56° C | 70% | 1020.4 hPa | 0 mm | - | - | - |
| 1778162625 | 10.56° C | 71% | 1020.4 hPa | 0 mm | - | - | - |
| 1778160810 | 10° C | 73% | 1020.6 hPa | 0 mm | - | - | - |
| 1778158995 | 10° C | 73% | 1020.6 hPa | 0 mm | - | - | - |
| 1778157180 | 10° C | 73% | 1020.4 hPa | 0 mm | - | - | - |
| 1778155364 | 10° C | 72% | 1020.5 hPa | 0 mm | - | - | - |
| 1778153549 | 10° C | 72% | 1020.5 hPa | 0 mm | - | - | - |
| 1778151735 | 10° C | 72% | 1020.5 hPa | 0 mm | - | - | - |
| 1778149920 | 10.56° C | 74% | 1020.6 hPa | - | - | - | - |
| 1778148104 | 10.56° C | 74% | 1020.6 hPa | - | - | - | - |
| 1778146289 | 10.56° C | 74% | 1020.4 hPa | - | - | - | - |
* Rain latest hour (hover to see other rain measurements)
** Current wind speed in m/s (hover to see current wind gust speed)